createdAt,value
2023-01-02T00:00:21.394Z,8.47
2023-01-02T00:05:18.358Z,8.52
2023-01-02T00:10:15.601Z,8.49
2023-01-02T00:15:12.437Z,8.38
2023-01-02T00:20:10.731Z,8.30
2023-01-02T00:25:08.083Z,8.38
2023-01-02T00:30:05.741Z,8.36
2023-01-02T00:35:02.664Z,8.32
2023-01-02T00:40:00.193Z,8.07
2023-01-02T00:44:57.039Z,8.20
2023-01-02T00:49:55.001Z,7.92
2023-01-02T00:54:51.714Z,7.88
2023-01-02T00:59:49.202Z,8.17
2023-01-02T01:04:47.421Z,7.99
2023-01-02T01:09:44.419Z,7.72
2023-01-02T01:14:41.249Z,8.12
2023-01-02T01:19:38.895Z,8.03
2023-01-02T01:24:35.671Z,8.06
2023-01-02T01:29:34.183Z,8.05
2023-01-02T01:34:31.068Z,8.05
2023-01-02T01:39:28.579Z,7.88
2023-01-02T01:44:46.254Z,7.51
2023-01-02T01:49:44.348Z,7.94
2023-01-02T01:54:46.630Z,7.91
2023-01-02T01:59:46.706Z,7.71
2023-01-02T02:04:45.266Z,7.74
2023-01-02T02:09:47.227Z,7.51
2023-01-02T02:14:44.245Z,7.77
2023-01-02T02:20:07.922Z,7.67
2023-01-02T02:25:46.140Z,7.50
2023-01-02T02:30:53.029Z,7.44
2023-01-02T02:36:01.168Z,7.73
2023-01-02T02:41:10.198Z,7.74
2023-01-02T02:46:15.199Z,7.72
2023-01-02T02:51:19.173Z,7.72
2023-01-02T02:56:18.414Z,7.62
2023-01-02T03:01:18.876Z,7.70
2023-01-02T03:06:33.729Z,7.56
2023-01-02T03:11:43.442Z,7.50
2023-01-02T03:16:43.448Z,7.50
2023-01-02T03:21:42.999Z,7.35
2023-01-02T03:26:43.639Z,7.54
2023-01-02T03:31:44.294Z,7.26
2023-01-02T03:36:43.127Z,7.36
2023-01-02T03:41:44.555Z,7.37
2023-01-02T03:46:49.205Z,6.88
2023-01-02T03:51:46.239Z,7.07
2023-01-02T03:56:52.689Z,7.32
2023-01-02T04:01:56.711Z,7.48
2023-01-02T04:06:59.749Z,7.48
2023-01-02T04:12:01.999Z,7.12
2023-01-02T04:17:03.704Z,7.22
2023-01-02T04:22:07.174Z,6.99
2023-01-02T04:27:09.167Z,6.97
2023-01-02T04:32:11.561Z,6.97
2023-01-02T04:37:08.368Z,7.07
2023-01-02T04:42:05.191Z,7.14
2023-01-02T04:47:02.047Z,6.68
2023-01-02T04:51:59.606Z,7.16
2023-01-02T04:56:56.469Z,7.16
2023-01-02T05:01:53.495Z,7.01
2023-01-02T05:06:50.396Z,7.11
2023-01-02T05:11:47.821Z,6.91
2023-01-02T05:16:44.610Z,6.96
2023-01-02T05:22:11.137Z,6.78
2023-01-02T05:27:08.603Z,7.08
2023-01-02T05:32:05.805Z,6.69
2023-01-02T05:37:02.777Z,7.03
2023-01-02T05:42:00.120Z,7.10
2023-01-02T05:46:57.652Z,7.05
2023-01-02T05:51:54.558Z,7.12
2023-01-02T05:56:51.308Z,7.14
2023-01-02T06:01:48.323Z,7.18
2023-01-02T06:06:46.502Z,7.11
2023-01-02T06:11:43.765Z,7.04
2023-01-02T06:16:40.595Z,6.89
2023-01-02T06:21:37.523Z,7.26
2023-01-02T06:26:35.654Z,7.17
2023-01-02T06:31:32.834Z,7.22
2023-01-02T06:36:31.339Z,7.22
2023-01-02T06:41:28.370Z,7.07
2023-01-02T06:46:26.064Z,7.38
2023-01-02T06:51:23.868Z,7.24
2023-01-02T06:56:22.230Z,7.23
2023-01-02T07:01:21.431Z,7.50
2023-01-02T07:06:33.240Z,7.20
2023-01-02T07:11:30.209Z,7.18
2023-01-02T07:16:30.996Z,7.91
2023-01-02T07:21:30.148Z,7.87
2023-01-02T07:26:27.493Z,7.93
2023-01-02T07:31:24.443Z,8.22
2023-01-02T07:36:22.316Z,8.00
2023-01-02T07:41:28.849Z,8.26
2023-01-02T07:46:26.336Z,8.41
2023-01-02T07:51:27.627Z,8.47
2023-01-02T07:56:28.793Z,8.42
2023-01-02T08:01:25.812Z,8.50
2023-01-02T08:06:23.060Z,9.19
2023-01-02T08:11:22.108Z,9.12
2023-01-02T08:16:22.204Z,9.33
2023-01-02T08:21:19.377Z,9.26
2023-01-02T08:26:16.794Z,9.80
2023-01-02T08:31:15.714Z,9.75
2023-01-02T08:36:17.694Z,9.52
2023-01-02T08:41:39.987Z,10.42
2023-01-02T08:46:42.175Z,10.46
2023-01-02T08:51:40.578Z,10.71
2023-01-02T08:56:39.278Z,10.80
2023-01-02T09:01:40.200Z,10.62
2023-01-02T09:06:37.715Z,10.90
2023-01-02T09:11:38.785Z,11.17
2023-01-02T09:16:44.296Z,11.25
2023-01-02T09:21:41.848Z,11.06
2023-01-02T09:26:42.274Z,11.20
2023-01-02T09:31:40.283Z,11.02
2023-01-02T09:36:37.219Z,10.79
2023-01-02T09:41:36.855Z,11.04
2023-01-02T09:46:40.943Z,11.13
2023-01-02T09:51:38.142Z,11.63
2023-01-02T09:56:43.663Z,11.63
2023-01-02T10:01:54.961Z,11.57
2023-01-02T10:07:03.263Z,11.79
2023-01-02T10:12:07.567Z,11.87
2023-01-02T10:17:08.209Z,11.24
2023-01-02T10:22:07.933Z,11.42
2023-01-02T10:27:11.537Z,12.01
2023-01-02T10:32:15.259Z,11.92
2023-01-02T10:37:14.710Z,12.29
2023-01-02T10:42:14.733Z,12.07
2023-01-02T10:47:19.564Z,12.35
2023-01-02T10:52:23.665Z,12.65
2023-01-02T10:57:30.366Z,12.64
2023-01-02T11:02:31.192Z,12.18
2023-01-02T11:07:31.516Z,12.38
2023-01-02T11:12:28.532Z,12.93
2023-01-02T11:17:29.488Z,13.60
2023-01-02T11:22:35.906Z,13.94
2023-01-02T11:27:35.717Z,14.75
2023-01-02T11:32:38.726Z,15.03
2023-01-02T11:37:36.899Z,15.15
2023-01-02T11:42:59.136Z,15.45
2023-01-02T11:47:59.966Z,15.70
2023-01-02T11:53:01.469Z,15.82
2023-01-02T11:58:06.107Z,15.95
2023-01-02T12:03:06.559Z,16.17
2023-01-02T12:08:09.874Z,15.74
2023-01-02T12:13:21.639Z,16.16
2023-01-02T12:18:32.367Z,16.26
2023-01-02T12:24:09.664Z,16.54
2023-01-02T12:29:48.842Z,16.60
2023-01-02T12:35:47.241Z,16.65
2023-01-02T12:40:56.579Z,16.31
2023-01-02T12:46:07.424Z,16.30
2023-01-02T12:51:15.996Z,16.52
2023-01-02T12:56:21.595Z,16.42
2023-01-02T13:01:23.953Z,16.45
2023-01-02T13:06:43.541Z,16.56
2023-01-02T13:11:48.583Z,16.46
2023-01-02T13:16:50.737Z,16.36
2023-01-02T13:21:52.429Z,16.24
2023-01-02T13:26:51.438Z,16.09
2023-01-02T13:31:51.647Z,15.90
2023-01-02T13:36:49.614Z,15.29
2023-01-02T13:42:09.589Z,15.49
2023-01-02T13:47:25.730Z,15.17
2023-01-02T13:52:24.841Z,15.42
2023-01-02T13:58:08.240Z,15.12
2023-01-02T14:03:36.669Z,15.13
2023-01-02T14:08:35.440Z,14.69
2023-01-02T14:13:40.388Z,14.60
2023-01-02T14:18:46.836Z,14.67
2023-01-02T14:24:16.422Z,14.14
2023-01-02T14:29:10.321Z,14.36
2023-01-02T14:34:10.337Z,14.22
2023-01-02T14:39:18.046Z,14.07
2023-01-02T14:44:15.669Z,13.81
2023-01-02T14:49:24.818Z,13.67
2023-01-02T14:54:27.443Z,13.61
2023-01-02T14:59:28.622Z,13.42
2023-01-02T15:04:39.428Z,12.90
2023-01-02T15:09:40.920Z,12.46
2023-01-02T15:14:39.225Z,12.92
2023-01-02T15:19:41.699Z,12.41
2023-01-02T15:24:48.022Z,11.85
2023-01-02T15:29:47.489Z,12.37
2023-01-02T15:34:49.881Z,12.07
2023-01-02T15:39:49.206Z,12.10
2023-01-02T15:45:06.984Z,12.02
2023-01-02T15:50:12.674Z,11.90
2023-01-02T15:55:14.466Z,11.72
2023-01-02T16:00:30.429Z,11.71
2023-01-02T16:05:29.001Z,11.41
2023-01-02T16:10:28.194Z,11.49
2023-01-02T16:15:29.198Z,11.25
2023-01-02T16:20:29.599Z,11.28
2023-01-02T16:25:31.229Z,10.74
2023-01-02T16:30:41.092Z,10.68
2023-01-02T16:35:39.398Z,10.67
2023-01-02T16:41:01.458Z,10.87
2023-01-02T16:45:59.781Z,10.26
2023-01-02T16:51:18.371Z,10.78
2023-01-02T16:56:21.651Z,10.31
2023-01-02T17:01:20.425Z,10.27
2023-01-02T17:07:22.811Z,10.35
2023-01-02T17:12:21.341Z,9.99
2023-01-02T17:17:18.209Z,10.35
2023-01-02T17:22:15.211Z,10.09
2023-01-02T17:27:12.428Z,10.12
2023-01-02T17:32:09.954Z,10.12
2023-01-02T17:37:07.026Z,10.01
2023-01-02T17:42:04.226Z,10.03
2023-01-02T17:47:30.679Z,9.84
2023-01-02T17:52:19.816Z,9.61
2023-01-02T17:57:16.622Z,9.79
2023-01-02T18:02:15.693Z,9.80
2023-01-02T18:07:14.003Z,9.94
2023-01-02T18:12:12.348Z,9.73
2023-01-02T18:17:13.631Z,9.66
2023-01-02T18:22:14.991Z,9.47
2023-01-02T18:27:23.682Z,9.71
2023-01-02T18:32:27.854Z,9.71
2023-01-02T18:37:26.676Z,9.48
2023-01-02T18:42:26.424Z,9.69
2023-01-02T18:47:28.108Z,9.66
2023-01-02T18:52:27.170Z,9.62
2023-01-02T18:57:35.657Z,9.59
2023-01-02T19:02:39.077Z,9.47
2023-01-02T19:07:39.244Z,9.54
2023-01-02T19:13:06.744Z,9.49
2023-01-02T19:18:46.805Z,9.07
2023-01-02T19:23:47.512Z,8.70
2023-01-02T19:29:06.909Z,9.35
2023-01-02T19:34:16.831Z,8.91
2023-01-02T19:39:25.106Z,8.91
2023-01-02T19:44:24.420Z,9.27
2023-01-02T19:49:24.265Z,9.04
2023-01-02T19:54:21.621Z,8.76
2023-01-02T19:59:18.640Z,9.16
2023-01-02T20:04:16.870Z,9.12
2023-01-02T20:09:13.747Z,8.74
2023-01-02T20:14:10.787Z,8.14
2023-01-02T20:19:07.849Z,8.98
2023-01-02T20:24:06.094Z,8.61
2023-01-02T20:29:05.082Z,8.91
2023-01-02T20:34:11.143Z,8.75
2023-01-02T20:39:16.467Z,8.82
2023-01-02T20:44:18.240Z,8.41
2023-01-02T20:49:15.164Z,8.38
2023-01-02T20:54:12.638Z,8.75
2023-01-02T20:59:09.644Z,8.64
2023-01-02T21:04:09.795Z,8.75
2023-01-02T21:09:23.153Z,8.13
2023-01-02T21:14:19.927Z,8.25
2023-01-02T21:19:16.786Z,8.49
2023-01-02T21:24:13.661Z,8.56
2023-01-02T21:29:11.291Z,8.17
2023-01-02T21:34:08.084Z,8.60
2023-01-02T21:39:05.132Z,8.33
2023-01-02T21:44:01.893Z,8.51
2023-01-02T21:48:59.459Z,8.05
2023-01-02T21:53:56.191Z,8.08
2023-01-02T21:58:54.367Z,8.42
2023-01-02T22:03:51.918Z,8.39
2023-01-02T22:08:49.443Z,8.06
2023-01-02T22:13:46.338Z,8.31
2023-01-02T22:18:43.121Z,8.30
2023-01-02T22:23:39.876Z,8.23
2023-01-02T22:28:37.412Z,8.24
2023-01-02T22:33:36.073Z,8.01
2023-01-02T22:38:33.027Z,7.95
2023-01-02T22:43:34.910Z,8.09
2023-01-02T22:48:34.579Z,8.12
2023-01-02T22:53:33.583Z,8.07
2023-01-02T22:58:30.359Z,8.08
2023-01-02T23:03:29.049Z,8.05
2023-01-02T23:08:26.667Z,8.00
2023-01-02T23:13:23.593Z,7.96
2023-01-02T23:18:38.093Z,7.92
2023-01-02T23:23:35.727Z,7.89
2023-01-02T23:29:05.404Z,7.87
2023-01-02T23:33:49.732Z,7.81
2023-01-02T23:38:47.158Z,7.71
2023-01-02T23:43:44.009Z,7.84
2023-01-02T23:48:40.807Z,7.84
2023-01-02T23:53:37.629Z,7.69
2023-01-02T23:58:35.767Z,7.79
